sensor_id;sensor_type;location;lat;lon;timestamp;P1;durP1;ratioP1;P2;durP2;ratioP2
17382;SDS011;8809;51.892;8.384;2023-04-03T00:01:44;2.78;;;1.30;;
17382;SDS011;8809;51.892;8.384;2023-04-03T00:04:11;1.67;;;1.40;;
17382;SDS011;8809;51.892;8.384;2023-04-03T00:06:38;3.78;;;1.38;;
17382;SDS011;8809;51.892;8.384;2023-04-03T00:09:05;2.17;;;1.30;;
17382;SDS011;8809;51.892;8.384;2023-04-03T00:11:32;2.90;;;1.40;;
17382;SDS011;8809;51.892;8.384;2023-04-03T00:13:59;4.93;;;1.60;;
17382;SDS011;8809;51.892;8.384;2023-04-03T00:16:28;1.77;;;1.63;;
17382;SDS011;8809;51.892;8.384;2023-04-03T00:18:55;1.80;;;1.48;;
17382;SDS011;8809;51.892;8.384;2023-04-03T00:21:23;1.45;;;1.17;;
17382;SDS011;8809;51.892;8.384;2023-04-03T00:23:51;2.67;;;1.58;;
17382;SDS011;8809;51.892;8.384;2023-04-03T00:26:18;2.33;;;1.15;;
17382;SDS011;8809;51.892;8.384;2023-04-03T00:28:45;3.10;;;1.55;;
17382;SDS011;8809;51.892;8.384;2023-04-03T00:31:13;5.43;;;1.92;;
17382;SDS011;8809;51.892;8.384;2023-04-03T00:33:42;2.47;;;1.50;;
17382;SDS011;8809;51.892;8.384;2023-04-03T00:36:10;1.77;;;1.38;;
17382;SDS011;8809;51.892;8.384;2023-04-03T00:38:39;1.92;;;1.33;;
17382;SDS011;8809;51.892;8.384;2023-04-03T00:41:06;2.03;;;1.45;;
17382;SDS011;8809;51.892;8.384;2023-04-03T00:43:34;2.42;;;1.50;;
17382;SDS011;8809;51.892;8.384;2023-04-03T00:46:01;4.13;;;1.60;;
17382;SDS011;8809;51.892;8.384;2023-04-03T00:48:29;2.90;;;1.60;;
17382;SDS011;8809;51.892;8.384;2023-04-03T00:50:59;2.60;;;1.40;;
17382;SDS011;8809;51.892;8.384;2023-04-03T00:53:27;2.42;;;1.30;;
17382;SDS011;8809;51.892;8.384;2023-04-03T00:55:57;3.78;;;1.48;;
17382;SDS011;8809;51.892;8.384;2023-04-03T00:58:27;2.83;;;1.30;;
17382;SDS011;8809;51.892;8.384;2023-04-03T01:01:00;2.17;;;1.60;;
17382;SDS011;8809;51.892;8.384;2023-04-03T01:03:33;2.95;;;1.40;;
17382;SDS011;8809;51.892;8.384;2023-04-03T01:06:01;2.33;;;1.45;;
17382;SDS011;8809;51.892;8.384;2023-04-03T01:08:30;3.03;;;1.50;;
17382;SDS011;8809;51.892;8.384;2023-04-03T01:10:57;2.58;;;1.50;;
17382;SDS011;8809;51.892;8.384;2023-04-03T01:13:25;4.15;;;1.73;;
17382;SDS011;8809;51.892;8.384;2023-04-03T01:15:54;2.92;;;1.52;;
17382;SDS011;8809;51.892;8.384;2023-04-03T01:18:21;1.88;;;1.25;;
17382;SDS011;8809;51.892;8.384;2023-04-03T01:20:59;1.85;;;1.30;;
17382;SDS011;8809;51.892;8.384;2023-04-03T01:26:58;1.60;;;1.33;;
17382;SDS011;8809;51.892;8.384;2023-04-03T01:29:27;2.78;;;1.60;;
17382;SDS011;8809;51.892;8.384;2023-04-03T01:31:56;1.92;;;1.50;;
17382;SDS011;8809;51.892;8.384;2023-04-03T01:34:25;5.55;;;2.08;;
17382;SDS011;8809;51.892;8.384;2023-04-03T01:36:52;5.38;;;1.70;;
17382;SDS011;8809;51.892;8.384;2023-04-03T01:39:20;4.78;;;1.40;;
17382;SDS011;8809;51.892;8.384;2023-04-03T01:41:47;3.40;;;1.70;;
17382;SDS011;8809;51.892;8.384;2023-04-03T01:44:15;2.72;;;1.67;;
17382;SDS011;8809;51.892;8.384;2023-04-03T01:46:42;2.05;;;1.80;;
17382;SDS011;8809;51.892;8.384;2023-04-03T01:49:11;3.17;;;1.50;;
17382;SDS011;8809;51.892;8.384;2023-04-03T01:51:38;2.08;;;1.50;;
17382;SDS011;8809;51.892;8.384;2023-04-03T01:54:05;3.78;;;1.50;;
17382;SDS011;8809;51.892;8.384;2023-04-03T01:56:32;2.28;;;1.25;;
17382;SDS011;8809;51.892;8.384;2023-04-03T01:58:59;3.00;;;1.80;;
17382;SDS011;8809;51.892;8.384;2023-04-03T02:01:26;3.00;;;1.60;;
17382;SDS011;8809;51.892;8.384;2023-04-03T02:03:53;3.83;;;1.70;;
17382;SDS011;8809;51.892;8.384;2023-04-03T02:06:22;3.10;;;1.50;;
17382;SDS011;8809;51.892;8.384;2023-04-03T02:08:49;3.72;;;1.60;;
17382;SDS011;8809;51.892;8.384;2023-04-03T02:11:16;2.55;;;1.30;;
17382;SDS011;8809;51.892;8.384;2023-04-03T02:13:43;1.95;;;1.35;;
17382;SDS011;8809;51.892;8.384;2023-04-03T02:16:10;5.70;;;2.28;;
17382;SDS011;8809;51.892;8.384;2023-04-03T02:18:38;3.75;;;1.60;;
17382;SDS011;8809;51.892;8.384;2023-04-03T02:21:07;3.92;;;1.83;;
17382;SDS011;8809;51.892;8.384;2023-04-03T02:23:35;1.92;;;1.40;;
17382;SDS011;8809;51.892;8.384;2023-04-03T02:26:03;3.72;;;1.80;;
17382;SDS011;8809;51.892;8.384;2023-04-03T02:28:32;4.05;;;1.90;;
17382;SDS011;8809;51.892;8.384;2023-04-03T02:30:59;3.17;;;1.38;;
17382;SDS011;8809;51.892;8.384;2023-04-03T02:33:26;3.78;;;1.58;;
17382;SDS011;8809;51.892;8.384;2023-04-03T02:35:53;1.85;;;1.55;;
17382;SDS011;8809;51.892;8.384;2023-04-03T02:38:20;4.45;;;1.60;;
17382;SDS011;8809;51.892;8.384;2023-04-03T02:40:49;2.30;;;2.00;;
17382;SDS011;8809;51.892;8.384;2023-04-03T02:43:17;2.42;;;1.40;;
17382;SDS011;8809;51.892;8.384;2023-04-03T02:45:44;4.68;;;1.73;;
17382;SDS011;8809;51.892;8.384;2023-04-03T02:48:11;2.92;;;1.63;;
17382;SDS011;8809;51.892;8.384;2023-04-03T02:50:40;3.22;;;1.70;;
17382;SDS011;8809;51.892;8.384;2023-04-03T02:53:08;3.20;;;1.50;;
17382;SDS011;8809;51.892;8.384;2023-04-03T02:55:35;2.63;;;1.58;;
17382;SDS011;8809;51.892;8.384;2023-04-03T02:58:04;2.60;;;1.80;;
17382;SDS011;8809;51.892;8.384;2023-04-03T03:00:31;2.92;;;1.33;;
17382;SDS011;8809;51.892;8.384;2023-04-03T03:02:58;2.20;;;1.13;;
17382;SDS011;8809;51.892;8.384;2023-04-03T03:05:25;2.33;;;1.30;;
17382;SDS011;8809;51.892;8.384;2023-04-03T03:07:53;3.08;;;1.52;;
17382;SDS011;8809;51.892;8.384;2023-04-03T03:10:20;4.15;;;1.80;;
17382;SDS011;8809;51.892;8.384;2023-04-03T03:12:48;1.80;;;1.30;;
17382;SDS011;8809;51.892;8.384;2023-04-03T03:15:17;3.25;;;1.50;;
17382;SDS011;8809;51.892;8.384;2023-04-03T03:17:44;4.80;;;1.60;;
17382;SDS011;8809;51.892;8.384;2023-04-03T03:20:12;3.53;;;1.60;;
17382;SDS011;8809;51.892;8.384;2023-04-03T03:22:41;4.70;;;1.55;;
17382;SDS011;8809;51.892;8.384;2023-04-03T03:25:09;2.50;;;1.60;;
17382;SDS011;8809;51.892;8.384;2023-04-03T03:27:36;2.03;;;1.40;;
17382;SDS011;8809;51.892;8.384;2023-04-03T03:30:05;3.10;;;1.77;;
17382;SDS011;8809;51.892;8.384;2023-04-03T03:32:35;3.72;;;1.90;;
17382;SDS011;8809;51.892;8.384;2023-04-03T03:35:02;3.45;;;1.73;;
17382;SDS011;8809;51.892;8.384;2023-04-03T03:37:29;2.75;;;1.77;;
17382;SDS011;8809;51.892;8.384;2023-04-03T03:39:56;2.00;;;1.50;;
17382;SDS011;8809;51.892;8.384;2023-04-03T03:42:23;3.15;;;1.70;;
17382;SDS011;8809;51.892;8.384;2023-04-03T03:44:50;4.00;;;1.60;;
17382;SDS011;8809;51.892;8.384;2023-04-03T03:47:17;2.08;;;1.50;;
17382;SDS011;8809;51.892;8.384;2023-04-03T03:49:46;3.88;;;1.60;;
17382;SDS011;8809;51.892;8.384;2023-04-03T03:52:13;5.03;;;1.90;;
17382;SDS011;8809;51.892;8.384;2023-04-03T03:54:40;4.07;;;1.90;;
17382;SDS011;8809;51.892;8.384;2023-04-03T03:57:07;2.65;;;1.77;;
17382;SDS011;8809;51.892;8.384;2023-04-03T03:59:34;2.67;;;1.52;;
17382;SDS011;8809;51.892;8.384;2023-04-03T04:02:01;2.33;;;1.77;;
17382;SDS011;8809;51.892;8.384;2023-04-03T04:04:28;3.53;;;1.63;;
17382;SDS011;8809;51.892;8.384;2023-04-03T04:06:56;3.25;;;1.63;;
17382;SDS011;8809;51.892;8.384;2023-04-03T04:09:25;1.90;;;1.40;;
17382;SDS011;8809;51.892;8.384;2023-04-03T04:11:53;3.22;;;1.73;;
17382;SDS011;8809;51.892;8.384;2023-04-03T04:14:20;4.00;;;1.65;;
17382;SDS011;8809;51.892;8.384;2023-04-03T04:16:47;5.70;;;1.85;;
17382;SDS011;8809;51.892;8.384;2023-04-03T04:19:15;3.00;;;1.42;;
17382;SDS011;8809;51.892;8.384;2023-04-03T04:21:42;3.03;;;1.60;;
17382;SDS011;8809;51.892;8.384;2023-04-03T04:24:10;4.07;;;1.50;;
17382;SDS011;8809;51.892;8.384;2023-04-03T04:26:37;2.83;;;1.40;;
17382;SDS011;8809;51.892;8.384;2023-04-03T04:29:04;2.88;;;1.70;;
17382;SDS011;8809;51.892;8.384;2023-04-03T04:31:31;2.50;;;1.52;;
17382;SDS011;8809;51.892;8.384;2023-04-03T04:33:58;2.65;;;1.65;;
17382;SDS011;8809;51.892;8.384;2023-04-03T04:36:25;4.43;;;1.70;;
17382;SDS011;8809;51.892;8.384;2023-04-03T04:38:52;3.08;;;1.73;;
17382;SDS011;8809;51.892;8.384;2023-04-03T04:41:21;2.78;;;2.03;;
17382;SDS011;8809;51.892;8.384;2023-04-03T04:43:48;2.90;;;1.67;;
17382;SDS011;8809;51.892;8.384;2023-04-03T04:46:15;2.53;;;1.98;;
17382;SDS011;8809;51.892;8.384;2023-04-03T04:48:43;3.80;;;1.90;;
17382;SDS011;8809;51.892;8.384;2023-04-03T04:51:10;3.75;;;1.60;;
17382;SDS011;8809;51.892;8.384;2023-04-03T04:53:38;2.08;;;1.70;;
17382;SDS011;8809;51.892;8.384;2023-04-03T04:56:05;2.53;;;1.60;;
17382;SDS011;8809;51.892;8.384;2023-04-03T04:58:34;4.28;;;1.80;;
17382;SDS011;8809;51.892;8.384;2023-04-03T05:01:01;5.47;;;1.95;;
17382;SDS011;8809;51.892;8.384;2023-04-03T05:03:29;3.70;;;2.42;;
17382;SDS011;8809;51.892;8.384;2023-04-03T05:05:56;3.95;;;1.90;;
17382;SDS011;8809;51.892;8.384;2023-04-03T05:08:23;3.95;;;1.80;;
17382;SDS011;8809;51.892;8.384;2023-04-03T05:10:50;4.05;;;1.65;;
17382;SDS011;8809;51.892;8.384;2023-04-03T05:13:18;2.95;;;1.50;;
17382;SDS011;8809;51.892;8.384;2023-04-03T05:15:47;4.38;;;1.67;;
17382;SDS011;8809;51.892;8.384;2023-04-03T05:18:15;2.95;;;1.52;;
17382;SDS011;8809;51.892;8.384;2023-04-03T05:20:42;4.85;;;1.67;;
17382;SDS011;8809;51.892;8.384;2023-04-03T05:23:09;2.22;;;1.42;;
17382;SDS011;8809;51.892;8.384;2023-04-03T05:25:37;5.80;;;1.80;;
17382;SDS011;8809;51.892;8.384;2023-04-03T05:28:04;2.97;;;1.90;;
17382;SDS011;8809;51.892;8.384;2023-04-03T05:30:31;3.22;;;1.58;;
17382;SDS011;8809;51.892;8.384;2023-04-03T05:33:00;6.60;;;1.98;;
17382;SDS011;8809;51.892;8.384;2023-04-03T05:35:28;3.00;;;1.58;;
17382;SDS011;8809;51.892;8.384;2023-04-03T05:37:55;2.83;;;2.03;;
17382;SDS011;8809;51.892;8.384;2023-04-03T05:40:23;5.03;;;1.73;;
17382;SDS011;8809;51.892;8.384;2023-04-03T05:42:50;4.43;;;1.90;;
17382;SDS011;8809;51.892;8.384;2023-04-03T05:45:18;4.22;;;1.80;;
17382;SDS011;8809;51.892;8.384;2023-04-03T05:47:45;5.88;;;1.80;;
17382;SDS011;8809;51.892;8.384;2023-04-03T05:50:15;4.90;;;1.95;;
17382;SDS011;8809;51.892;8.384;2023-04-03T05:52:43;7.45;;;2.25;;
17382;SDS011;8809;51.892;8.384;2023-04-03T05:55:12;3.72;;;1.70;;
17382;SDS011;8809;51.892;8.384;2023-04-03T05:57:40;5.13;;;2.00;;
17382;SDS011;8809;51.892;8.384;2023-04-03T06:00:07;4.15;;;1.77;;
17382;SDS011;8809;51.892;8.384;2023-04-03T06:02:41;3.95;;;1.75;;
17382;SDS011;8809;51.892;8.384;2023-04-03T06:05:09;4.13;;;1.70;;
17382;SDS011;8809;51.892;8.384;2023-04-03T06:07:38;2.45;;;1.73;;
17382;SDS011;8809;51.892;8.384;2023-04-03T06:10:06;4.00;;;1.48;;
17382;SDS011;8809;51.892;8.384;2023-04-03T06:12:34;2.92;;;1.55;;
17382;SDS011;8809;51.892;8.384;2023-04-03T06:15:01;3.13;;;1.50;;
17382;SDS011;8809;51.892;8.384;2023-04-03T06:17:29;3.15;;;1.77;;
17382;SDS011;8809;51.892;8.384;2023-04-03T06:19:56;4.05;;;2.05;;
17382;SDS011;8809;51.892;8.384;2023-04-03T06:22:23;3.88;;;1.60;;
17382;SDS011;8809;51.892;8.384;2023-04-03T06:24:54;4.80;;;1.88;;
17382;SDS011;8809;51.892;8.384;2023-04-03T06:27:21;2.78;;;1.80;;
17382;SDS011;8809;51.892;8.384;2023-04-03T06:29:48;3.70;;;1.90;;
17382;SDS011;8809;51.892;8.384;2023-04-03T06:32:15;4.28;;;1.73;;
17382;SDS011;8809;51.892;8.384;2023-04-03T06:34:43;3.90;;;2.05;;
17382;SDS011;8809;51.892;8.384;2023-04-03T06:37:10;3.78;;;2.10;;
17382;SDS011;8809;51.892;8.384;2023-04-03T06:39:41;5.90;;;2.00;;
17382;SDS011;8809;51.892;8.384;2023-04-03T06:42:10;3.25;;;1.80;;
17382;SDS011;8809;51.892;8.384;2023-04-03T06:44:37;2.97;;;1.63;;
17382;SDS011;8809;51.892;8.384;2023-04-03T06:47:04;4.68;;;2.30;;
17382;SDS011;8809;51.892;8.384;2023-04-03T06:49:31;3.55;;;1.83;;
17382;SDS011;8809;51.892;8.384;2023-04-03T06:51:58;2.13;;;1.63;;
17382;SDS011;8809;51.892;8.384;2023-04-03T06:54:25;4.05;;;1.70;;
17382;SDS011;8809;51.892;8.384;2023-04-03T06:56:52;2.55;;;1.70;;
17382;SDS011;8809;51.892;8.384;2023-04-03T06:59:21;4.07;;;1.70;;
17382;SDS011;8809;51.892;8.384;2023-04-03T07:01:48;5.95;;;1.83;;
17382;SDS011;8809;51.892;8.384;2023-04-03T07:04:16;3.05;;;1.38;;
17382;SDS011;8809;51.892;8.384;2023-04-03T07:06:45;3.60;;;1.98;;
17382;SDS011;8809;51.892;8.384;2023-04-03T07:09:13;3.47;;;1.63;;
17382;SDS011;8809;51.892;8.384;2023-04-03T07:11:41;3.65;;;1.67;;
17382;SDS011;8809;51.892;8.384;2023-04-03T07:14:08;2.72;;;1.75;;
17382;SDS011;8809;51.892;8.384;2023-04-03T07:16:36;3.55;;;1.50;;
17382;SDS011;8809;51.892;8.384;2023-04-03T07:19:04;5.22;;;1.92;;
17382;SDS011;8809;51.892;8.384;2023-04-03T07:21:32;3.95;;;2.03;;
17382;SDS011;8809;51.892;8.384;2023-04-03T07:23:59;3.70;;;1.75;;
17382;SDS011;8809;51.892;8.384;2023-04-03T07:26:27;5.55;;;2.25;;
17382;SDS011;8809;51.892;8.384;2023-04-03T07:28:55;3.78;;;1.77;;
17382;SDS011;8809;51.892;8.384;2023-04-03T07:31:23;6.68;;;1.67;;
17382;SDS011;8809;51.892;8.384;2023-04-03T07:33:52;3.72;;;1.48;;
17382;SDS011;8809;51.892;8.384;2023-04-03T07:36:20;4.63;;;1.42;;
17382;SDS011;8809;51.892;8.384;2023-04-03T07:38:49;2.88;;;1.70;;
17382;SDS011;8809;51.892;8.384;2023-04-03T07:41:17;2.70;;;1.63;;
17382;SDS011;8809;51.892;8.384;2023-04-03T07:43:47;4.28;;;1.90;;
17382;SDS011;8809;51.892;8.384;2023-04-03T07:46:16;4.22;;;2.00;;
17382;SDS011;8809;51.892;8.384;2023-04-03T07:48:43;3.20;;;1.33;;
17382;SDS011;8809;51.892;8.384;2023-04-03T07:51:13;3.10;;;1.60;;
17382;SDS011;8809;51.892;8.384;2023-04-03T07:53:40;3.17;;;1.40;;
17382;SDS011;8809;51.892;8.384;2023-04-03T07:56:07;4.93;;;1.70;;
17382;SDS011;8809;51.892;8.384;2023-04-03T07:58:35;4.18;;;1.67;;
17382;SDS011;8809;51.892;8.384;2023-04-03T08:01:03;2.75;;;1.40;;
17382;SDS011;8809;51.892;8.384;2023-04-03T08:03:31;4.40;;;1.67;;
17382;SDS011;8809;51.892;8.384;2023-04-03T08:06:01;3.55;;;1.52;;
17382;SDS011;8809;51.892;8.384;2023-04-03T08:08:31;2.03;;;1.38;;
17382;SDS011;8809;51.892;8.384;2023-04-03T08:10:59;2.20;;;1.42;;
17382;SDS011;8809;51.892;8.384;2023-04-03T08:13:27;3.63;;;1.52;;
17382;SDS011;8809;51.892;8.384;2023-04-03T08:15:55;3.60;;;1.38;;
17382;SDS011;8809;51.892;8.384;2023-04-03T08:18:24;1.80;;;1.17;;
17382;SDS011;8809;51.892;8.384;2023-04-03T08:20:52;2.05;;;1.30;;
17382;SDS011;8809;51.892;8.384;2023-04-03T08:23:19;1.27;;;1.00;;
17382;SDS011;8809;51.892;8.384;2023-04-03T08:25:48;2.42;;;1.40;;
17382;SDS011;8809;51.892;8.384;2023-04-03T08:28:16;1.65;;;1.23;;
17382;SDS011;8809;51.892;8.384;2023-04-03T08:30:43;2.85;;;1.35;;
17382;SDS011;8809;51.892;8.384;2023-04-03T08:33:11;3.72;;;1.25;;
17382;SDS011;8809;51.892;8.384;2023-04-03T08:35:39;4.20;;;1.33;;
17382;SDS011;8809;51.892;8.384;2023-04-03T08:38:06;2.90;;;1.30;;
17382;SDS011;8809;51.892;8.384;2023-04-03T08:40:33;2.88;;;1.30;;
17382;SDS011;8809;51.892;8.384;2023-04-03T08:43:06;1.77;;;1.02;;
17382;SDS011;8809;51.892;8.384;2023-04-03T08:45:53;3.15;;;1.30;;
17382;SDS011;8809;51.892;8.384;2023-04-03T08:48:23;1.40;;;1.30;;
17382;SDS011;8809;51.892;8.384;2023-04-03T08:50:56;1.80;;;1.25;;
17382;SDS011;8809;51.892;8.384;2023-04-03T08:53:26;1.92;;;1.23;;
17382;SDS011;8809;51.892;8.384;2023-04-03T08:56:00;4.13;;;1.30;;
17382;SDS011;8809;51.892;8.384;2023-04-03T08:58:45;2.10;;;1.20;;
17382;SDS011;8809;51.892;8.384;2023-04-03T09:01:17;2.05;;;1.10;;
17382;SDS011;8809;51.892;8.384;2023-04-03T09:03:47;1.33;;;1.10;;
17382;SDS011;8809;51.892;8.384;2023-04-03T09:06:15;1.33;;;1.17;;
17382;SDS011;8809;51.892;8.384;2023-04-03T09:08:47;2.45;;;1.00;;
17382;SDS011;8809;51.892;8.384;2023-04-03T09:11:21;2.25;;;1.10;;
17382;SDS011;8809;51.892;8.384;2023-04-03T09:13:56;1.60;;;1.10;;
17382;SDS011;8809;51.892;8.384;2023-04-03T09:16:33;1.50;;;1.15;;
17382;SDS011;8809;51.892;8.384;2023-04-03T09:19:22;1.65;;;1.23;;
17382;SDS011;8809;51.892;8.384;2023-04-03T09:21:59;2.22;;;1.17;;
17382;SDS011;8809;51.892;8.384;2023-04-03T09:24:29;2.35;;;1.17;;
17382;SDS011;8809;51.892;8.384;2023-04-03T09:26:59;3.08;;;1.48;;
17382;SDS011;8809;51.892;8.384;2023-04-03T09:29:32;3.28;;;1.30;;
17382;SDS011;8809;51.892;8.384;2023-04-03T09:32:12;2.92;;;1.40;;
17382;SDS011;8809;51.892;8.384;2023-04-03T09:34:45;2.92;;;1.13;;
17382;SDS011;8809;51.892;8.384;2023-04-03T09:37:33;1.65;;;1.00;;
17382;SDS011;8809;51.892;8.384;2023-04-03T09:40:04;2.03;;;1.10;;
17382;SDS011;8809;51.892;8.384;2023-04-03T09:42:33;2.35;;;1.15;;
17382;SDS011;8809;51.892;8.384;2023-04-03T09:45:21;1.65;;;1.05;;
17382;SDS011;8809;51.892;8.384;2023-04-03T09:48:06;4.97;;;1.15;;
17382;SDS011;8809;51.892;8.384;2023-04-03T09:50:35;3.13;;;1.00;;
17382;SDS011;8809;51.892;8.384;2023-04-03T09:53:06;1.98;;;1.08;;
17382;SDS011;8809;51.892;8.384;2023-04-03T09:55:48;2.63;;;1.23;;
17382;SDS011;8809;51.892;8.384;2023-04-03T09:58:26;1.98;;;1.00;;
17382;SDS011;8809;51.892;8.384;2023-04-03T10:00:57;2.08;;;1.13;;
17382;SDS011;8809;51.892;8.384;2023-04-03T10:03:27;3.65;;;1.30;;
17382;SDS011;8809;51.892;8.384;2023-04-03T10:05:57;3.40;;;1.05;;
17382;SDS011;8809;51.892;8.384;2023-04-03T10:08:26;1.75;;;1.20;;
17382;SDS011;8809;51.892;8.384;2023-04-03T10:11:05;1.77;;;1.10;;
17382;SDS011;8809;51.892;8.384;2023-04-03T10:13:49;2.22;;;1.10;;
17382;SDS011;8809;51.892;8.384;2023-04-03T10:16:22;2.97;;;1.38;;
17382;SDS011;8809;51.892;8.384;2023-04-03T10:18:57;3.35;;;1.10;;
17382;SDS011;8809;51.892;8.384;2023-04-03T10:21:45;1.67;;;1.10;;
17382;SDS011;8809;51.892;8.384;2023-04-03T10:24:18;2.47;;;1.10;;
17382;SDS011;8809;51.892;8.384;2023-04-03T10:26:52;3.78;;;1.10;;
17382;SDS011;8809;51.892;8.384;2023-04-03T10:32:23;2.72;;;1.17;;
17382;SDS011;8809;51.892;8.384;2023-04-03T10:35:03;2.78;;;0.98;;
17382;SDS011;8809;51.892;8.384;2023-04-03T10:37:40;2.67;;;1.42;;
17382;SDS011;8809;51.892;8.384;2023-04-03T10:40:21;3.47;;;1.20;;
17382;SDS011;8809;51.892;8.384;2023-04-03T10:42:59;2.97;;;1.05;;
17382;SDS011;8809;51.892;8.384;2023-04-03T10:45:38;2.97;;;1.00;;
17382;SDS011;8809;51.892;8.384;2023-04-03T10:48:32;2.92;;;0.98;;
17382;SDS011;8809;51.892;8.384;2023-04-03T10:51:18;1.50;;;0.95;;
17382;SDS011;8809;51.892;8.384;2023-04-03T10:53:52;2.15;;;1.17;;
17382;SDS011;8809;51.892;8.384;2023-04-03T10:56:31;1.52;;;1.13;;
17382;SDS011;8809;51.892;8.384;2023-04-03T10:59:08;3.28;;;1.30;;
17382;SDS011;8809;51.892;8.384;2023-04-03T11:01:44;3.30;;;1.20;;
17382;SDS011;8809;51.892;8.384;2023-04-03T11:04:16;1.23;;;0.85;;
17382;SDS011;8809;51.892;8.384;2023-04-03T11:06:47;4.10;;;1.30;;
17382;SDS011;8809;51.892;8.384;2023-04-03T11:09:22;1.83;;;1.00;;
17382;SDS011;8809;51.892;8.384;2023-04-03T11:11:53;1.92;;;1.08;;
17382;SDS011;8809;51.892;8.384;2023-04-03T11:14:27;1.95;;;0.93;;
17382;SDS011;8809;51.892;8.384;2023-04-03T11:17:05;2.65;;;1.00;;
17382;SDS011;8809;51.892;8.384;2023-04-03T11:19:44;1.77;;;1.10;;
17382;SDS011;8809;51.892;8.384;2023-04-03T11:22:20;2.13;;;0.90;;
17382;SDS011;8809;51.892;8.384;2023-04-03T11:24:53;1.98;;;0.90;;
17382;SDS011;8809;51.892;8.384;2023-04-03T11:27:25;0.95;;;0.80;;
17382;SDS011;8809;51.892;8.384;2023-04-03T11:29:59;1.60;;;0.80;;
17382;SDS011;8809;51.892;8.384;2023-04-03T11:35:30;1.38;;;1.10;;
17382;SDS011;8809;51.892;8.384;2023-04-03T11:37:59;1.85;;;0.95;;
17382;SDS011;8809;51.892;8.384;2023-04-03T11:40:31;1.60;;;0.80;;
17382;SDS011;8809;51.892;8.384;2023-04-03T11:43:05;1.58;;;0.80;;
17382;SDS011;8809;51.892;8.384;2023-04-03T11:45:35;2.20;;;0.88;;
17382;SDS011;8809;51.892;8.384;2023-04-03T11:48:05;2.15;;;1.00;;
17382;SDS011;8809;51.892;8.384;2023-04-03T11:50:41;1.73;;;1.08;;
17382;SDS011;8809;51.892;8.384;2023-04-03T11:53:25;1.95;;;0.90;;
17382;SDS011;8809;51.892;8.384;2023-04-03T11:56:26;1.95;;;1.10;;
17382;SDS011;8809;51.892;8.384;2023-04-03T12:01:51;1.98;;;0.90;;
17382;SDS011;8809;51.892;8.384;2023-04-03T12:04:20;1.85;;;0.95;;
17382;SDS011;8809;51.892;8.384;2023-04-03T12:07:11;2.63;;;0.93;;
17382;SDS011;8809;51.892;8.384;2023-04-03T12:12:58;2.67;;;1.30;;
17382;SDS011;8809;51.892;8.384;2023-04-03T12:24:34;2.30;;;1.20;;
17382;SDS011;8809;51.892;8.384;2023-04-03T12:27:18;2.53;;;1.00;;
17382;SDS011;8809;51.892;8.384;2023-04-03T12:29:54;2.55;;;1.00;;
17382;SDS011;8809;51.892;8.384;2023-04-03T12:32:36;3.63;;;1.17;;
17382;SDS011;8809;51.892;8.384;2023-04-03T12:35:15;4.80;;;1.58;;
17382;SDS011;8809;51.892;8.384;2023-04-03T12:38:15;3.28;;;1.08;;
17382;SDS011;8809;51.892;8.384;2023-04-03T12:40:57;2.15;;;1.00;;
17382;SDS011;8809;51.892;8.384;2023-04-03T12:43:48;3.25;;;1.02;;
17382;SDS011;8809;51.892;8.384;2023-04-03T12:46:26;3.20;;;1.20;;
17382;SDS011;8809;51.892;8.384;2023-04-03T12:49:00;3.92;;;1.00;;
17382;SDS011;8809;51.892;8.384;2023-04-03T12:51:33;2.55;;;1.00;;
17382;SDS011;8809;51.892;8.384;2023-04-03T12:54:04;2.15;;;1.25;;
17382;SDS011;8809;51.892;8.384;2023-04-03T12:56:42;2.78;;;1.08;;
17382;SDS011;8809;51.892;8.384;2023-04-03T12:59:15;3.38;;;0.90;;
17382;SDS011;8809;51.892;8.384;2023-04-03T13:01:44;3.13;;;1.25;;
17382;SDS011;8809;51.892;8.384;2023-04-03T13:04:19;2.55;;;1.08;;
17382;SDS011;8809;51.892;8.384;2023-04-03T13:06:47;1.70;;;1.08;;
17382;SDS011;8809;51.892;8.384;2023-04-03T13:09:18;4.50;;;0.90;;
17382;SDS011;8809;51.892;8.384;2023-04-03T13:11:50;3.70;;;1.15;;
17382;SDS011;8809;51.892;8.384;2023-04-03T13:14:23;2.58;;;0.90;;
17382;SDS011;8809;51.892;8.384;2023-04-03T13:16:54;1.77;;;1.00;;
17382;SDS011;8809;51.892;8.384;2023-04-03T13:19:22;1.85;;;1.00;;
17382;SDS011;8809;51.892;8.384;2023-04-03T13:21:51;2.35;;;1.10;;
17382;SDS011;8809;51.892;8.384;2023-04-03T13:24:24;2.90;;;1.10;;
17382;SDS011;8809;51.892;8.384;2023-04-03T13:26:53;2.70;;;1.38;;
17382;SDS011;8809;51.892;8.384;2023-04-03T13:29:23;1.85;;;0.90;;
17382;SDS011;8809;51.892;8.384;2023-04-03T13:31:53;1.65;;;0.95;;
17382;SDS011;8809;51.892;8.384;2023-04-03T13:34:21;1.80;;;0.80;;
17382;SDS011;8809;51.892;8.384;2023-04-03T13:36:55;2.83;;;1.20;;
17382;SDS011;8809;51.892;8.384;2023-04-03T13:39:24;1.45;;;1.13;;
17382;SDS011;8809;51.892;8.384;2023-04-03T13:41:55;2.83;;;1.00;;
17382;SDS011;8809;51.892;8.384;2023-04-03T13:44:28;2.00;;;1.10;;
17382;SDS011;8809;51.892;8.384;2023-04-03T13:46:59;1.27;;;0.82;;
17382;SDS011;8809;51.892;8.384;2023-04-03T13:49:41;1.45;;;0.80;;
17382;SDS011;8809;51.892;8.384;2023-04-03T13:52:22;2.55;;;0.95;;
17382;SDS011;8809;51.892;8.384;2023-04-03T13:54:54;2.28;;;1.00;;
17382;SDS011;8809;51.892;8.384;2023-04-03T13:57:25;3.58;;;1.00;;
17382;SDS011;8809;51.892;8.384;2023-04-03T13:59:54;2.30;;;1.15;;
17382;SDS011;8809;51.892;8.384;2023-04-03T14:02:22;2.85;;;1.05;;
17382;SDS011;8809;51.892;8.384;2023-04-03T14:04:56;3.45;;;1.17;;
17382;SDS011;8809;51.892;8.384;2023-04-03T14:07:26;2.03;;;0.98;;
17382;SDS011;8809;51.892;8.384;2023-04-03T14:09:54;1.98;;;1.20;;
17382;SDS011;8809;51.892;8.384;2023-04-03T14:12:26;4.03;;;1.33;;
17382;SDS011;8809;51.892;8.384;2023-04-03T14:14:56;1.70;;;1.13;;
17382;SDS011;8809;51.892;8.384;2023-04-03T14:17:24;2.70;;;1.42;;
17382;SDS011;8809;51.892;8.384;2023-04-03T14:19:53;2.92;;;0.98;;
17382;SDS011;8809;51.892;8.384;2023-04-03T14:22:24;2.83;;;0.90;;
17382;SDS011;8809;51.892;8.384;2023-04-03T14:24:53;3.25;;;1.15;;
17382;SDS011;8809;51.892;8.384;2023-04-03T14:27:23;1.98;;;1.17;;
17382;SDS011;8809;51.892;8.384;2023-04-03T14:29:54;2.10;;;1.25;;
17382;SDS011;8809;51.892;8.384;2023-04-03T14:32:24;5.55;;;1.00;;
17382;SDS011;8809;51.892;8.384;2023-04-03T14:34:52;1.67;;;0.88;;
17382;SDS011;8809;51.892;8.384;2023-04-03T14:37:21;2.83;;;0.93;;
17382;SDS011;8809;51.892;8.384;2023-04-03T14:39:50;2.03;;;1.13;;
17382;SDS011;8809;51.892;8.384;2023-04-03T14:42:19;1.90;;;0.93;;
17382;SDS011;8809;51.892;8.384;2023-04-03T14:44:49;1.63;;;0.90;;
17382;SDS011;8809;51.892;8.384;2023-04-03T14:47:18;1.83;;;1.00;;
17382;SDS011;8809;51.892;8.384;2023-04-03T14:49:47;1.20;;;1.10;;
17382;SDS011;8809;51.892;8.384;2023-04-03T14:52:16;2.20;;;1.08;;
17382;SDS011;8809;51.892;8.384;2023-04-03T14:54:46;1.95;;;1.00;;
17382;SDS011;8809;51.892;8.384;2023-04-03T14:57:14;2.58;;;1.23;;
17382;SDS011;8809;51.892;8.384;2023-04-03T14:59:42;1.13;;;0.80;;
17382;SDS011;8809;51.892;8.384;2023-04-03T15:02:24;2.33;;;1.00;;
17382;SDS011;8809;51.892;8.384;2023-04-03T15:04:54;1.90;;;1.00;;
17382;SDS011;8809;51.892;8.384;2023-04-03T15:07:22;2.10;;;1.13;;
17382;SDS011;8809;51.892;8.384;2023-04-03T15:09:53;1.65;;;0.77;;
17382;SDS011;8809;51.892;8.384;2023-04-03T15:12:22;2.72;;;1.13;;
17382;SDS011;8809;51.892;8.384;2023-04-03T15:14:49;1.27;;;0.85;;
17382;SDS011;8809;51.892;8.384;2023-04-03T15:17:17;3.33;;;0.90;;
17382;SDS011;8809;51.892;8.384;2023-04-03T15:19:49;1.88;;;1.05;;
17382;SDS011;8809;51.892;8.384;2023-04-03T15:22:17;1.58;;;0.90;;
17382;SDS011;8809;51.892;8.384;2023-04-03T15:24:45;1.83;;;1.00;;
17382;SDS011;8809;51.892;8.384;2023-04-03T15:27:13;4.03;;;1.20;;
17382;SDS011;8809;51.892;8.384;2023-04-03T15:29:41;2.83;;;0.90;;
17382;SDS011;8809;51.892;8.384;2023-04-03T15:32:11;2.78;;;1.10;;
17382;SDS011;8809;51.892;8.384;2023-04-03T15:34:38;2.28;;;1.10;;
17382;SDS011;8809;51.892;8.384;2023-04-03T15:37:07;1.55;;;1.10;;
17382;SDS011;8809;51.892;8.384;2023-04-03T15:39:35;1.45;;;1.05;;
17382;SDS011;8809;51.892;8.384;2023-04-03T15:42:02;2.15;;;1.00;;
17382;SDS011;8809;51.892;8.384;2023-04-03T15:44:31;2.63;;;1.08;;